createdAt,value
2023-04-13T00:00:18.835Z,992.32
2023-04-13T00:01:18.828Z,992.27
2023-04-13T00:02:18.896Z,992.19
2023-04-13T00:03:19.059Z,992.15
2023-04-13T00:04:18.864Z,992.16
2023-04-13T00:05:18.847Z,992.21
2023-04-13T00:06:18.782Z,992.17
2023-04-13T00:07:18.775Z,992.16
2023-04-13T00:08:18.780Z,992.11
2023-04-13T00:09:18.756Z,992.17
2023-04-13T00:10:18.746Z,992.30
2023-04-13T00:11:18.736Z,992.29
2023-04-13T00:12:18.732Z,992.22
2023-04-13T00:13:18.721Z,992.25
2023-04-13T00:14:18.720Z,992.30
2023-04-13T00:15:18.699Z,992.28
2023-04-13T00:16:18.720Z,992.28
2023-04-13T00:17:18.678Z,992.25
2023-04-13T00:18:18.670Z,992.32
2023-04-13T00:19:18.671Z,992.26
2023-04-13T00:20:18.661Z,992.24
2023-04-13T00:21:18.649Z,992.14
2023-04-13T00:22:18.643Z,992.21
2023-04-13T00:23:18.626Z,992.14
2023-04-13T00:24:18.615Z,992.20
2023-04-13T00:25:18.614Z,992.24
2023-04-13T00:26:18.602Z,992.13
2023-04-13T00:27:18.594Z,992.18
2023-04-13T00:28:18.583Z,992.17
2023-04-13T00:29:18.583Z,992.08
2023-04-13T00:30:18.564Z,992.05
2023-04-13T00:31:18.611Z,992.06
2023-04-13T00:32:18.549Z,992.16
2023-04-13T00:33:18.595Z,992.03
2023-04-13T00:34:18.526Z,992.04
2023-04-13T00:35:18.542Z,992.06
2023-04-13T00:36:18.506Z,992.10
2023-04-13T00:37:18.502Z,992.10
2023-04-13T00:38:18.506Z,992.04
2023-04-13T00:39:18.493Z,992.05
2023-04-13T00:40:18.470Z,992.07
2023-04-13T00:41:18.464Z,992.07
2023-04-13T00:42:18.455Z,992.09
2023-04-13T00:43:18.448Z,992.03
2023-04-13T00:44:18.439Z,992.04
2023-04-13T00:45:18.443Z,992.18
2023-04-13T00:46:18.554Z,992.04
2023-04-13T00:47:18.412Z,992.03
2023-04-13T00:48:18.406Z,991.90
2023-04-13T00:49:18.399Z,992.04
2023-04-13T00:50:18.427Z,992.15
2023-04-13T00:51:18.385Z,992.09
2023-04-13T00:52:18.370Z,991.93
2023-04-13T00:53:18.362Z,992.01
2023-04-13T00:54:18.345Z,992.07
2023-04-13T00:55:18.338Z,992.16
2023-04-13T00:56:18.331Z,992.06
2023-04-13T00:57:18.321Z,992.06
2023-04-13T00:58:18.313Z,991.92
2023-04-13T00:59:18.306Z,991.87
2023-04-13T01:00:18.315Z,991.91
2023-04-13T01:01:18.353Z,991.97
2023-04-13T01:02:18.420Z,991.91
2023-04-13T01:03:18.460Z,991.98
2023-04-13T01:04:18.293Z,991.89
2023-04-13T01:05:18.244Z,991.81
2023-04-13T01:06:18.239Z,991.76
2023-04-13T01:07:18.233Z,991.78
2023-04-13T01:08:18.227Z,991.97
2023-04-13T01:09:18.216Z,991.97
2023-04-13T01:10:18.207Z,991.86
2023-04-13T01:11:18.204Z,991.92
2023-04-13T01:12:18.193Z,991.86
2023-04-13T01:13:18.177Z,991.84
2023-04-13T01:14:18.166Z,991.84
2023-04-13T01:15:18.161Z,991.89
2023-04-13T01:16:18.200Z,991.81
2023-04-13T01:17:18.142Z,991.79
2023-04-13T01:18:18.152Z,991.83
2023-04-13T01:19:18.142Z,991.78
2023-04-13T01:20:18.122Z,991.79
2023-04-13T01:21:18.109Z,991.83
2023-04-13T01:22:18.101Z,991.87
2023-04-13T01:23:18.089Z,991.83
2023-04-13T01:24:18.094Z,991.78
2023-04-13T01:25:18.080Z,991.79
2023-04-13T01:26:18.065Z,991.78
2023-04-13T01:27:18.058Z,991.82
2023-04-13T01:28:18.058Z,991.78
2023-04-13T01:29:18.050Z,991.83
2023-04-13T01:30:18.040Z,991.78
2023-04-13T01:31:18.069Z,991.98
2023-04-13T01:32:18.013Z,991.99
2023-04-13T01:33:18.004Z,991.84
2023-04-13T01:34:17.995Z,991.90
2023-04-13T01:35:17.989Z,991.92
2023-04-13T01:36:17.982Z,991.83
2023-04-13T01:37:17.971Z,991.83
2023-04-13T01:38:17.962Z,991.94
2023-04-13T01:39:17.957Z,991.80
2023-04-13T01:40:17.942Z,991.85
2023-04-13T01:41:17.938Z,991.90
2023-04-13T01:42:17.932Z,991.82
2023-04-13T01:43:17.914Z,991.83
2023-04-13T01:44:17.909Z,991.92
2023-04-13T01:45:17.918Z,991.74
2023-04-13T01:46:17.898Z,991.74
2023-04-13T01:47:17.933Z,991.86
2023-04-13T01:48:17.872Z,991.84
2023-04-13T01:49:17.861Z,991.88
2023-04-13T01:50:17.855Z,991.93
2023-04-13T01:51:17.847Z,991.86
2023-04-13T01:52:17.838Z,991.95
2023-04-13T01:53:17.841Z,991.93
2023-04-13T01:54:17.826Z,991.97
2023-04-13T01:55:17.808Z,992.00
2023-04-13T01:56:17.800Z,992.02
2023-04-13T01:57:17.811Z,991.77
2023-04-13T01:58:17.790Z,991.77
2023-04-13T01:59:17.777Z,991.76
2023-04-13T02:00:17.766Z,991.82
2023-04-13T02:01:17.793Z,991.78
2023-04-13T02:02:17.820Z,991.79
2023-04-13T02:03:17.776Z,992.00
2023-04-13T02:04:17.920Z,991.88
2023-04-13T02:05:17.737Z,991.92
2023-04-13T02:06:17.713Z,991.79
2023-04-13T02:07:17.703Z,991.86
2023-04-13T02:08:17.697Z,991.89
2023-04-13T02:09:17.685Z,991.96
2023-04-13T02:10:38.686Z,991.92
2023-04-13T02:11:17.667Z,991.90
2023-04-13T02:12:17.659Z,991.90
2023-04-13T02:13:17.650Z,991.75
2023-04-13T02:14:17.645Z,991.78
2023-04-13T02:15:17.631Z,991.94
2023-04-13T02:16:17.638Z,991.82
2023-04-13T02:17:17.641Z,991.67
2023-04-13T02:18:17.604Z,991.82
2023-04-13T02:19:17.610Z,991.69
2023-04-13T02:20:17.588Z,991.67
2023-04-13T02:21:17.583Z,991.70
2023-04-13T02:22:17.567Z,991.74
2023-04-13T02:23:17.561Z,991.62
2023-04-13T02:24:17.550Z,991.70
2023-04-13T02:25:17.569Z,991.68
2023-04-13T02:26:17.534Z,991.75
2023-04-13T02:27:17.526Z,991.76
2023-04-13T02:28:17.750Z,991.71
2023-04-13T02:29:17.510Z,991.88
2023-04-13T02:30:17.494Z,991.83
2023-04-13T02:31:17.642Z,991.77
2023-04-13T02:32:17.556Z,991.72
2023-04-13T02:33:17.470Z,991.68
2023-04-13T02:34:17.456Z,991.71
2023-04-13T02:35:17.454Z,991.80
2023-04-13T02:36:17.697Z,991.76
2023-04-13T02:37:17.440Z,991.70
2023-04-13T02:38:17.424Z,991.76
2023-04-13T02:39:17.419Z,991.76
2023-04-13T02:40:17.417Z,991.71
2023-04-13T02:41:17.415Z,991.72
2023-04-13T02:42:17.392Z,991.72
2023-04-13T02:43:17.383Z,991.85
2023-04-13T02:44:17.369Z,991.74
2023-04-13T02:45:17.374Z,991.86
2023-04-13T02:46:17.459Z,991.74
2023-04-13T02:47:17.384Z,991.76
2023-04-13T02:48:17.354Z,991.74
2023-04-13T02:49:17.329Z,991.70
2023-04-13T02:50:17.327Z,991.76
2023-04-13T02:51:17.343Z,991.69
2023-04-13T02:52:17.301Z,991.73
2023-04-13T02:53:17.292Z,991.68
2023-04-13T02:54:17.285Z,991.68
2023-04-13T02:55:17.272Z,991.69
2023-04-13T02:56:17.266Z,991.66
2023-04-13T02:57:17.255Z,991.73
2023-04-13T02:58:17.251Z,991.78
2023-04-13T02:59:17.244Z,991.74
2023-04-13T03:00:17.238Z,991.75
2023-04-13T03:01:17.254Z,991.74
2023-04-13T03:02:17.290Z,991.71
2023-04-13T03:03:17.328Z,991.72
2023-04-13T03:04:17.200Z,991.76
2023-04-13T03:05:17.183Z,991.78
2023-04-13T03:06:17.173Z,991.75
2023-04-13T03:07:17.218Z,991.76
2023-04-13T03:08:17.168Z,991.74
2023-04-13T03:09:17.147Z,991.71
2023-04-13T03:10:17.146Z,991.73
2023-04-13T03:11:17.132Z,991.73
2023-04-13T03:12:17.116Z,991.74
2023-04-13T03:13:17.117Z,991.79
2023-04-13T03:14:17.106Z,991.74
2023-04-13T03:15:17.095Z,991.73
2023-04-13T03:16:17.130Z,991.71
2023-04-13T03:17:19.237Z,991.75
2023-04-13T03:18:17.061Z,991.91
2023-04-13T03:19:17.059Z,991.75
2023-04-13T03:20:17.046Z,991.72
2023-04-13T03:21:17.045Z,991.71
2023-04-13T03:22:17.036Z,991.71
2023-04-13T03:23:17.106Z,991.80
2023-04-13T03:24:17.018Z,991.74
2023-04-13T03:25:17.012Z,991.71
2023-04-13T03:26:17.003Z,991.76
2023-04-13T03:27:16.991Z,991.73
2023-04-13T03:28:16.987Z,991.78
2023-04-13T03:29:16.975Z,991.73
2023-04-13T03:30:16.962Z,991.74
2023-04-13T03:31:16.973Z,991.71
2023-04-13T03:32:16.997Z,991.86
2023-04-13T03:33:16.947Z,991.72
2023-04-13T03:34:16.929Z,991.82
2023-04-13T03:35:16.928Z,991.77
2023-04-13T03:36:16.909Z,991.74
2023-04-13T03:37:16.903Z,991.77
2023-04-13T03:38:16.892Z,991.80
2023-04-13T03:39:16.883Z,991.76
2023-04-13T03:40:16.875Z,991.72
2023-04-13T03:41:16.867Z,991.70
2023-04-13T03:42:16.860Z,991.70
2023-04-13T03:43:16.857Z,991.76
2023-04-13T03:44:16.854Z,991.77
2023-04-13T03:45:16.833Z,991.74
2023-04-13T03:46:16.839Z,991.75
2023-04-13T03:47:16.835Z,991.76
2023-04-13T03:48:16.811Z,991.80
2023-04-13T03:49:16.801Z,991.74
2023-04-13T03:50:16.799Z,991.80
2023-04-13T03:51:16.825Z,991.82
2023-04-13T03:52:16.769Z,991.84
2023-04-13T03:53:16.764Z,991.87
2023-04-13T03:54:16.776Z,991.88
2023-04-13T03:55:16.783Z,991.89
2023-04-13T03:56:16.731Z,991.87
2023-04-13T03:57:16.727Z,991.88
2023-04-13T03:58:16.720Z,991.87
2023-04-13T03:59:16.711Z,991.94
2023-04-13T04:00:16.707Z,991.90
2023-04-13T04:01:16.688Z,992.00
2023-04-13T04:02:16.804Z,991.89
2023-04-13T04:03:16.774Z,991.95
2023-04-13T04:04:16.797Z,991.97
2023-04-13T04:05:16.717Z,992.01
2023-04-13T04:06:16.649Z,992.00
2023-04-13T04:07:16.631Z,992.04
2023-04-13T04:08:16.632Z,992.02
2023-04-13T04:09:16.613Z,991.99
2023-04-13T04:10:16.622Z,992.04
2023-04-13T04:11:16.606Z,992.04
2023-04-13T04:12:16.594Z,992.10
2023-04-13T04:13:16.605Z,992.08
2023-04-13T04:14:16.572Z,992.01
2023-04-13T04:15:16.570Z,992.03
2023-04-13T04:16:16.673Z,992.10
2023-04-13T04:17:16.568Z,992.18
2023-04-13T04:18:16.554Z,992.19
2023-04-13T04:19:16.535Z,992.16
2023-04-13T04:20:16.525Z,992.20
2023-04-13T04:21:16.517Z,992.20
2023-04-13T04:22:16.504Z,992.20
2023-04-13T04:23:17.236Z,992.16
2023-04-13T04:24:16.489Z,992.20
2023-04-13T04:25:16.486Z,992.23
2023-04-13T04:26:16.469Z,992.20
2023-04-13T04:27:16.478Z,992.27
2023-04-13T04:28:16.457Z,992.23
2023-04-13T04:29:16.442Z,992.30
2023-04-13T04:30:16.441Z,992.30
2023-04-13T04:31:16.446Z,992.28
2023-04-13T04:32:16.420Z,992.35
2023-04-13T04:33:16.409Z,992.31
2023-04-13T04:34:16.401Z,992.30
2023-04-13T04:35:16.395Z,992.30
2023-04-13T04:36:16.378Z,992.32
2023-04-13T04:37:20.681Z,992.35
2023-04-13T04:38:16.364Z,992.40
2023-04-13T04:39:16.355Z,992.34
2023-04-13T04:40:16.365Z,992.39
2023-04-13T04:41:16.349Z,992.35
2023-04-13T04:42:16.329Z,992.40
2023-04-13T04:43:16.318Z,992.42
2023-04-13T04:44:16.324Z,992.52
2023-04-13T04:45:16.308Z,992.51
2023-04-13T04:46:16.406Z,992.58
2023-04-13T04:47:16.280Z,992.64
2023-04-13T04:48:16.288Z,992.55
2023-04-13T04:49:16.267Z,992.48
2023-04-13T04:50:16.254Z,992.53
2023-04-13T04:51:16.250Z,992.56
2023-04-13T04:52:16.236Z,992.63
2023-04-13T04:53:16.230Z,992.57
2023-04-13T04:54:16.219Z,992.62
2023-04-13T04:55:16.219Z,992.60
2023-04-13T04:56:16.215Z,992.59
2023-04-13T04:57:16.207Z,992.61
2023-04-13T04:58:16.190Z,992.66
2023-04-13T04:59:16.182Z,992.65
2023-04-13T05:00:16.167Z,992.72
2023-04-13T05:01:16.199Z,992.67
2023-04-13T05:02:16.829Z,992.73
2023-04-13T05:03:16.179Z,992.69
2023-04-13T05:04:16.152Z,992.71
2023-04-13T05:05:16.172Z,992.73
2023-04-13T05:06:16.125Z,992.69
2023-04-13T05:07:16.116Z,992.71
2023-04-13T05:08:16.105Z,992.81
2023-04-13T05:09:16.095Z,992.71
2023-04-13T05:10:16.096Z,992.79
2023-04-13T05:11:16.079Z,992.79
2023-04-13T05:12:16.081Z,992.80
2023-04-13T05:13:16.064Z,992.81
2023-04-13T05:14:16.087Z,992.82
2023-04-13T05:15:16.047Z,992.88
2023-04-13T05:16:16.071Z,992.79
2023-04-13T05:17:16.028Z,992.82
2023-04-13T05:18:16.020Z,992.88
2023-04-13T05:19:16.009Z,992.92
2023-04-13T05:20:16.000Z,992.92
2023-04-13T05:21:15.999Z,992.92
2023-04-13T05:22:15.982Z,992.95
2023-04-13T05:23:15.972Z,992.95
2023-04-13T05:24:15.984Z,992.99
2023-04-13T05:25:15.962Z,993.00
2023-04-13T05:26:15.952Z,993.05
2023-04-13T05:27:15.999Z,993.03
2023-04-13T05:28:15.939Z,993.06
2023-04-13T05:29:15.931Z,993.07
2023-04-13T05:30:15.925Z,993.05
2023-04-13T05:31:15.985Z,993.22
2023-04-13T05:32:15.904Z,993.10
2023-04-13T05:33:15.897Z,993.09
2023-04-13T05:34:15.887Z,993.20
2023-04-13T05:35:15.886Z,993.12
2023-04-13T05:36:15.876Z,993.12
2023-04-13T05:37:15.870Z,993.17
2023-04-13T05:38:15.856Z,993.24
2023-04-13T05:39:15.839Z,993.24
2023-04-13T05:40:15.848Z,993.20
2023-04-13T05:41:15.832Z,993.29
2023-04-13T05:42:15.833Z,993.30
2023-04-13T05:43:15.810Z,993.29
2023-04-13T05:44:15.809Z,993.30
2023-04-13T05:45:15.793Z,993.32
2023-04-13T05:46:15.845Z,993.33
2023-04-13T05:47:15.778Z,993.27
2023-04-13T05:48:15.781Z,993.32
2023-04-13T05:49:15.762Z,993.30
2023-04-13T05:50:15.765Z,993.33
2023-04-13T05:51:15.752Z,993.33
2023-04-13T05:52:15.758Z,993.38
2023-04-13T05:53:15.736Z,993.40
2023-04-13T05:54:15.727Z,993.34
2023-04-13T05:55:15.711Z,993.39
2023-04-13T05:56:15.698Z,993.44
2023-04-13T05:57:15.697Z,993.45
2023-04-13T05:58:15.692Z,993.48
2023-04-13T05:59:15.676Z,993.49
2023-04-13T06:00:15.669Z,993.51
2023-04-13T06:01:15.674Z,993.53
2023-04-13T06:02:15.760Z,993.58
2023-04-13T06:03:15.881Z,993.59
2023-04-13T06:04:15.758Z,993.65
2023-04-13T06:05:15.705Z,993.63
2023-04-13T06:06:15.617Z,993.62
2023-04-13T06:07:15.629Z,993.62
2023-04-13T06:08:15.613Z,993.70
2023-04-13T06:09:15.619Z,993.68
2023-04-13T06:10:15.586Z,993.69
2023-04-13T06:11:15.587Z,993.70
2023-04-13T06:12:15.572Z,993.72
2023-04-13T06:13:15.578Z,993.77
2023-04-13T06:14:15.567Z,993.79
2023-04-13T06:15:15.554Z,993.79
2023-04-13T06:16:15.637Z,993.82
2023-04-13T06:17:15.530Z,993.85
2023-04-13T06:19:15.535Z,993.85
2023-04-13T06:20:15.552Z,993.82
2023-04-13T06:21:15.526Z,993.88
2023-04-13T06:22:15.511Z,993.98
2023-04-13T06:23:15.498Z,993.92
2023-04-13T06:24:15.494Z,993.94
2023-04-13T06:25:36.492Z,993.90
2023-04-13T06:26:15.486Z,993.93
2023-04-13T06:27:15.494Z,993.93
2023-04-13T06:28:15.459Z,993.91
2023-04-13T06:29:15.439Z,993.97
2023-04-13T06:30:15.450Z,993.98
2023-04-13T06:31:36.548Z,993.99
2023-04-13T06:32:15.432Z,993.96
2023-04-13T06:33:15.426Z,993.94
2023-04-13T06:34:15.452Z,993.98
2023-04-13T06:35:15.406Z,993.97
2023-04-13T06:36:15.395Z,994.01
2023-04-13T06:37:36.398Z,994.00
2023-04-13T06:38:15.380Z,994.04
2023-04-13T06:39:15.368Z,994.06
2023-04-13T06:40:15.395Z,994.07
2023-04-13T06:41:15.361Z,994.09
2023-04-13T06:42:15.392Z,994.11
2023-04-13T06:43:36.344Z,994.11
2023-04-13T06:44:15.334Z,994.10
2023-04-13T06:45:15.316Z,994.14
2023-04-13T06:46:15.933Z,994.16
2023-04-13T06:47:15.300Z,994.16
2023-04-13T06:48:15.298Z,994.20
2023-04-13T06:49:36.302Z,994.18
2023-04-13T06:50:15.287Z,994.22
2023-04-13T06:51:15.277Z,994.23
2023-04-13T06:52:15.281Z,994.27
2023-04-13T06:53:15.263Z,994.27
2023-04-13T06:54:15.268Z,994.23
2023-04-13T06:55:36.258Z,994.29
2023-04-13T06:56:15.245Z,994.30
2023-04-13T06:57:15.238Z,994.30
2023-04-13T06:58:15.234Z,994.31
2023-04-13T06:59:15.236Z,994.31
2023-04-13T07:00:29.083Z,994.33
2023-04-13T07:01:36.215Z,994.34
2023-04-13T07:02:15.294Z,994.29
2023-04-13T07:03:15.270Z,994.31
2023-04-13T07:04:15.252Z,994.33
2023-04-13T07:05:15.324Z,994.31
2023-04-13T07:06:15.179Z,994.36
2023-04-13T07:07:36.171Z,994.33
2023-04-13T07:08:15.168Z,994.35
2023-04-13T07:09:15.138Z,994.38
2023-04-13T07:10:15.135Z,994.37
2023-04-13T07:11:15.127Z,994.37
2023-04-13T07:12:15.120Z,994.40
2023-04-13T07:13:36.113Z,994.39
2023-04-13T07:14:15.120Z,994.38
2023-04-13T07:15:15.100Z,994.39
2023-04-13T07:16:15.123Z,994.38
2023-04-13T07:17:15.097Z,994.44
2023-04-13T07:18:15.071Z,994.48
2023-04-13T07:19:36.083Z,994.44
2023-04-13T07:20:15.064Z,994.49
2023-04-13T07:21:15.047Z,994.51
2023-04-13T07:22:15.053Z,994.56
2023-04-13T07:23:15.073Z,994.59
2023-04-13T07:24:15.032Z,994.63
2023-04-13T07:25:36.024Z,994.56
2023-04-13T07:26:15.065Z,994.63
2023-04-13T07:27:15.006Z,994.66
2023-04-13T07:28:15.010Z,994.70
2023-04-13T07:29:14.997Z,994.66
2023-04-13T07:30:14.994Z,994.76
2023-04-13T07:31:36.007Z,994.82
2023-04-13T07:32:14.972Z,994.81
2023-04-13T07:33:15.024Z,994.80
2023-04-13T07:34:14.965Z,994.81
2023-04-13T07:35:14.961Z,994.82
2023-04-13T07:36:14.947Z,994.86
2023-04-13T07:37:35.937Z,994.87
2023-04-13T07:38:14.980Z,994.88
2023-04-13T07:39:15.126Z,994.99
2023-04-13T07:40:14.906Z,994.97
2023-04-13T07:41:14.899Z,994.99
2023-04-13T07:42:14.894Z,994.98
2023-04-13T07:43:35.902Z,995.02
2023-04-13T07:44:14.875Z,995.05
2023-04-13T07:45:14.871Z,995.06
2023-04-13T07:46:14.888Z,994.98
2023-04-13T07:47:14.845Z,995.05
2023-04-13T07:48:14.873Z,995.11
2023-04-13T07:49:35.847Z,995.07
2023-04-13T07:50:14.846Z,995.13
2023-04-13T07:51:14.858Z,995.09
2023-04-13T07:52:14.830Z,995.07
2023-04-13T07:53:14.833Z,995.10
2023-04-13T07:54:16.704Z,995.11
2023-04-13T07:55:35.817Z,995.09
2023-04-13T07:56:14.820Z,995.11
2023-04-13T07:57:14.782Z,995.14
2023-04-13T07:58:14.805Z,995.14
2023-04-13T07:59:14.768Z,995.11
2023-04-13T08:00:14.764Z,995.16
2023-04-13T08:01:35.757Z,995.20
2023-04-13T08:02:14.795Z,995.27
2023-04-13T08:03:14.927Z,995.28
2023-04-13T08:04:14.912Z,995.29
2023-04-13T08:05:14.977Z,995.24
2023-04-13T08:06:14.721Z,995.24
2023-04-13T08:07:35.718Z,995.27
2023-04-13T08:08:14.713Z,995.24
2023-04-13T08:09:14.711Z,995.33
2023-04-13T08:10:14.704Z,995.29
2023-04-13T08:11:14.697Z,995.31
2023-04-13T08:12:14.687Z,995.39
2023-04-13T08:13:35.684Z,995.33
2023-04-13T08:14:14.678Z,995.35
2023-04-13T08:15:14.676Z,995.28
2023-04-13T08:16:14.701Z,995.30
2023-04-13T08:17:14.653Z,995.32
2023-04-13T08:18:14.646Z,995.37
2023-04-13T08:19:35.645Z,995.36
2023-04-13T08:20:14.634Z,995.41
2023-04-13T08:21:14.632Z,995.40
2023-04-13T08:22:14.644Z,995.43
2023-04-13T08:23:14.629Z,995.42
2023-04-13T08:24:14.626Z,995.39
2023-04-13T08:25:35.617Z,995.42
2023-04-13T08:26:14.598Z,995.36
2023-04-13T08:27:14.583Z,995.41
2023-04-13T08:28:14.581Z,995.41
2023-04-13T08:29:14.593Z,995.44
2023-04-13T08:30:14.657Z,995.50
2023-04-13T08:31:35.594Z,995.52
2023-04-13T08:32:14.629Z,995.47
2023-04-13T08:33:14.564Z,995.51
2023-04-13T08:34:14.543Z,995.55
2023-04-13T08:35:14.534Z,995.55
2023-04-13T08:36:14.534Z,995.51
2023-04-13T08:37:35.552Z,995.58
2023-04-13T08:38:14.516Z,995.55
2023-04-13T08:39:14.513Z,995.59
2023-04-13T08:40:14.501Z,995.58
2023-04-13T08:41:14.494Z,995.58
2023-04-13T08:42:14.505Z,995.60
2023-04-13T08:43:35.550Z,995.63
2023-04-13T08:44:14.481Z,995.66
2023-04-13T08:45:14.466Z,995.58
2023-04-13T08:46:14.490Z,995.68
2023-04-13T08:47:14.457Z,995.67
2023-04-13T08:48:14.497Z,995.75
2023-04-13T08:49:35.434Z,995.76
2023-04-13T08:50:14.431Z,995.76
2023-04-13T08:51:14.409Z,995.81
2023-04-13T08:52:16.585Z,995.79
2023-04-13T08:53:14.400Z,995.84
2023-04-13T08:54:14.425Z,995.85
2023-04-13T08:55:35.399Z,995.89
2023-04-13T08:56:14.393Z,995.89
2023-04-13T08:57:14.377Z,995.90
2023-04-13T08:58:14.379Z,995.94
2023-04-13T08:59:14.364Z,995.98
2023-04-13T09:00:14.368Z,995.94
2023-04-13T09:01:35.355Z,995.90
2023-04-13T09:02:14.468Z,995.92
2023-04-13T09:03:14.824Z,995.90
2023-04-13T09:04:14.690Z,995.92
2023-04-13T09:05:14.554Z,995.88
2023-04-13T09:06:14.321Z,995.82
2023-04-13T09:07:35.308Z,995.88
2023-04-13T09:08:14.314Z,995.89
2023-04-13T09:09:14.329Z,995.88
2023-04-13T09:10:14.295Z,995.89
2023-04-13T09:11:14.288Z,995.89
2023-04-13T09:12:14.279Z,995.92
2023-04-13T09:13:35.268Z,995.91
2023-04-13T09:14:14.262Z,995.94
2023-04-13T09:15:14.264Z,995.94
2023-04-13T09:16:14.248Z,995.87
2023-04-13T09:17:14.298Z,995.87
2023-04-13T09:18:14.260Z,995.90
2023-04-13T09:19:35.264Z,995.93
2023-04-13T09:20:14.227Z,995.87
2023-04-13T09:21:14.215Z,995.95
2023-04-13T09:22:14.394Z,995.93
2023-04-13T09:23:14.197Z,995.98
2023-04-13T09:24:14.215Z,996.01
2023-04-13T09:25:35.212Z,996.02
2023-04-13T09:26:14.191Z,996.01
2023-04-13T09:27:14.200Z,996.03
2023-04-13T09:28:14.170Z,996.10
2023-04-13T09:29:14.167Z,996.06
2023-04-13T09:30:14.155Z,996.10
2023-04-13T09:31:35.204Z,996.14
2023-04-13T09:32:14.149Z,996.27
2023-04-13T09:33:14.138Z,996.28
2023-04-13T09:34:14.152Z,996.27
2023-04-13T09:35:14.135Z,996.21
2023-04-13T09:36:14.132Z,996.24
2023-04-13T09:37:35.138Z,996.22
2023-04-13T09:38:14.108Z,996.23
2023-04-13T09:39:14.112Z,996.32
2023-04-13T09:40:14.109Z,996.38
2023-04-13T09:41:14.092Z,996.38
2023-04-13T09:42:14.095Z,996.38
2023-04-13T09:43:35.084Z,996.42
2023-04-13T09:44:14.072Z,996.44
2023-04-13T09:45:14.093Z,996.43
2023-04-13T09:46:14.245Z,996.37
2023-04-13T09:47:14.072Z,996.39
2023-04-13T09:48:14.054Z,996.35
2023-04-13T09:49:35.043Z,996.40
2023-04-13T09:50:14.030Z,996.38
2023-04-13T09:51:14.034Z,996.45
2023-04-13T09:52:14.017Z,996.43
2023-04-13T09:53:14.016Z,996.40
2023-04-13T09:54:14.014Z,996.42
2023-04-13T09:55:35.006Z,996.43
2023-04-13T09:56:14.060Z,996.44
2023-04-13T09:57:13.991Z,996.54
2023-04-13T09:58:14.000Z,996.63
2023-04-13T09:59:13.972Z,996.58
2023-04-13T10:00:13.970Z,996.63
2023-04-13T10:01:35.036Z,996.57
2023-04-13T10:02:14.025Z,996.62
2023-04-13T10:03:14.096Z,996.55
2023-04-13T10:04:13.943Z,996.54
2023-04-13T10:05:13.988Z,996.54
2023-04-13T10:06:13.936Z,996.54
2023-04-13T10:07:34.960Z,996.39
2023-04-13T10:08:15.286Z,996.49
2023-04-13T10:09:13.936Z,996.58
2023-04-13T10:10:13.960Z,996.41
2023-04-13T10:11:13.917Z,996.41
2023-04-13T10:12:13.905Z,996.43
2023-04-13T10:13:34.942Z,996.45
2023-04-13T10:14:13.907Z,996.43
2023-04-13T10:15:13.938Z,996.45
2023-04-13T10:16:13.949Z,996.49
2023-04-13T10:17:13.938Z,996.47
2023-04-13T10:18:13.996Z,996.44
2023-04-13T10:19:35.052Z,996.44
2023-04-13T10:20:14.023Z,996.44
2023-04-13T10:21:13.875Z,996.52
2023-04-13T10:22:13.880Z,996.47
2023-04-13T10:23:13.885Z,996.43
2023-04-13T10:24:13.897Z,996.41
2023-04-13T10:25:36.789Z,996.39
2023-04-13T10:26:13.858Z,996.32
2023-04-13T10:27:13.854Z,996.36
2023-04-13T10:28:13.839Z,996.36
2023-04-13T10:29:13.851Z,996.39
2023-04-13T10:30:13.884Z,996.41
2023-04-13T10:31:34.849Z,996.45
2023-04-13T10:32:13.810Z,996.43
2023-04-13T10:33:13.822Z,996.49
2023-04-13T10:34:13.996Z,996.51
2023-04-13T10:35:13.813Z,996.49
2023-04-13T10:36:13.808Z,996.50
2023-04-13T10:37:34.805Z,996.54
2023-04-13T10:38:13.786Z,996.56
2023-04-13T10:39:13.793Z,996.57
2023-04-13T10:40:13.783Z,996.56
2023-04-13T10:41:13.779Z,996.66
2023-04-13T10:42:14.528Z,996.60
2023-04-13T10:43:34.793Z,996.66
2023-04-13T10:44:13.758Z,996.63
2023-04-13T10:45:13.760Z,996.60
2023-04-13T10:46:13.917Z,996.76
2023-04-13T10:47:13.775Z,996.76
2023-04-13T10:48:13.781Z,996.70
2023-04-13T10:49:34.741Z,996.66
2023-04-13T10:50:13.727Z,996.75
2023-04-13T10:51:13.723Z,996.67
2023-04-13T10:52:13.723Z,996.69
2023-04-13T10:53:13.712Z,996.70
2023-04-13T10:54:13.702Z,996.65
2023-04-13T10:55:34.706Z,996.70
2023-04-13T10:56:13.693Z,996.64
2023-04-13T10:57:13.746Z,996.74
2023-04-13T10:58:13.704Z,996.79
2023-04-13T10:59:13.680Z,996.76
2023-04-13T11:00:13.691Z,996.76
2023-04-13T11:01:34.690Z,996.78
2023-04-13T11:02:13.732Z,996.83
2023-04-13T11:03:13.807Z,996.83
2023-04-13T11:04:16.172Z,996.90
2023-04-13T11:05:13.658Z,996.87
2023-04-13T11:06:13.663Z,996.85
2023-04-13T11:07:34.661Z,996.76
2023-04-13T11:08:13.640Z,996.79
2023-04-13T11:09:16.584Z,996.82
2023-04-13T11:10:13.669Z,996.91
2023-04-13T11:11:15.143Z,996.90
2023-04-13T11:12:13.629Z,996.90
2023-04-13T11:13:34.653Z,996.85
2023-04-13T11:14:13.616Z,996.90
2023-04-13T11:15:13.617Z,996.87
2023-04-13T11:16:13.747Z,996.94
2023-04-13T11:17:13.797Z,996.91
2023-04-13T11:18:13.656Z,996.89
2023-04-13T11:19:34.634Z,996.88
2023-04-13T11:20:13.652Z,996.83
2023-04-13T11:21:13.609Z,996.77
2023-04-13T11:22:13.598Z,996.74
2023-04-13T11:23:13.609Z,996.82
2023-04-13T11:24:13.589Z,996.82
2023-04-13T11:25:34.595Z,996.82
2023-04-13T11:26:13.575Z,996.82
2023-04-13T11:27:13.583Z,996.83
2023-04-13T11:28:13.598Z,996.78
2023-04-13T11:29:13.585Z,996.81
2023-04-13T11:30:13.629Z,996.80
2023-04-13T11:31:34.619Z,996.81
2023-04-13T11:32:13.625Z,996.86
2023-04-13T11:33:13.603Z,996.89
2023-04-13T11:34:13.552Z,996.95
2023-04-13T11:35:13.561Z,996.95
2023-04-13T11:36:13.541Z,996.95
2023-04-13T11:37:34.548Z,996.91
2023-04-13T11:38:13.566Z,996.95
2023-04-13T11:39:13.545Z,997.02
2023-04-13T11:40:13.594Z,996.95
2023-04-13T11:41:16.956Z,997.00
2023-04-13T11:42:13.578Z,997.04
2023-04-13T11:43:34.534Z,996.98
2023-04-13T11:44:13.545Z,997.01
2023-04-13T11:45:13.508Z,997.05
2023-04-13T11:46:13.629Z,997.07
2023-04-13T11:47:13.496Z,997.07
2023-04-13T11:48:13.486Z,997.07
2023-04-13T11:49:34.508Z,996.98
2023-04-13T11:50:15.433Z,997.03
2023-04-13T11:51:13.496Z,997.02
2023-04-13T11:52:13.473Z,997.04
2023-04-13T11:53:13.484Z,997.02
2023-04-13T11:54:13.475Z,997.00
2023-04-13T11:55:45.848Z,996.94
2023-04-13T11:56:13.472Z,996.98
2023-04-13T11:57:13.502Z,997.03
2023-04-13T11:58:13.470Z,997.01
2023-04-13T11:59:13.455Z,997.04
2023-04-13T12:00:13.451Z,997.02
2023-04-13T12:01:37.521Z,997.02
2023-04-13T12:02:22.071Z,997.02
2023-04-13T12:03:34.399Z,997.04
2023-04-13T12:04:16.392Z,997.04
2023-04-13T12:05:13.741Z,997.09
2023-04-13T12:06:13.590Z,997.08
2023-04-13T12:07:35.043Z,997.07
2023-04-13T12:08:13.598Z,997.12
2023-04-13T12:09:16.672Z,997.04
2023-04-13T12:10:22.869Z,997.10
2023-04-13T12:12:46.229Z,997.10
2023-04-13T12:13:37.597Z,997.18
2023-04-13T12:14:16.163Z,997.13
2023-04-13T12:15:33.988Z,997.13
2023-04-13T12:16:18.069Z,997.16
2023-04-13T12:17:37.627Z,997.17
2023-04-13T12:18:15.845Z,997.12
2023-04-13T12:19:35.559Z,997.12
2023-04-13T12:20:13.580Z,997.11
2023-04-13T12:21:13.557Z,997.14
2023-04-13T12:22:14.787Z,997.15
2023-04-13T12:23:22.256Z,997.14
2023-04-13T12:24:13.376Z,997.12
2023-04-13T12:25:35.958Z,997.13
2023-04-13T12:26:49.464Z,997.12
2023-04-13T12:27:17.798Z,997.18
2023-04-13T12:28:13.332Z,997.16
2023-04-13T12:29:13.325Z,997.21
2023-04-13T12:30:13.319Z,997.11